Time;durP1;ratioP1;P1;durP2;ratioP2;P2;SDS_P1;SDS_P2;PMS_P1;PMS_P2;Temp;Humidity;BMP_temperature;BMP_pressure;BME280_temperature;BME280_humidity;BME280_pressure;Samples;Min_cycle;Max_cycle;Signal;HPM_P1;HPM_P2
2021/05/05 00:00:16;;;;;;;6.87;3.62;;;9.80;65.10;;;;;;1764063;81;21154;-75
2021/05/05 00:02:45;;;;;;;6.45;3.20;;;9.80;65.00;;;;;;1763967;81;21130;-74
2021/05/05 00:05:14;;;;;;;5.67;2.98;;;9.80;65.60;;;;;;1764210;81;21158;-75
2021/05/05 00:07:42;;;;;;;7.80;3.22;;;9.80;66.10;;;;;;1764099;81;21580;-75
2021/05/05 00:10:12;;;;;;;4.92;3.10;;;9.70;65.60;;;;;;1764031;81;21150;-76
2021/05/05 00:12:41;;;;;;;4.90;2.95;;;9.70;65.50;;;;;;1764224;81;21608;-75
2021/05/05 00:15:17;;;;;;;6.72;2.90;;;9.70;65.60;;;;;;1764174;81;21588;-75
2021/05/05 00:17:45;;;;;;;4.92;2.83;;;9.80;65.00;;;;;;1764212;81;21572;-75
2021/05/05 00:20:15;;;;;;;6.30;2.80;;;9.80;65.00;;;;;;1764005;81;21170;-75
2021/05/05 00:22:43;;;;;;;5.78;3.33;;;9.80;65.20;;;;;;1764000;81;21174;-75
2021/05/05 00:25:12;;;;;;;5.97;3.77;;;9.70;65.00;;;;;;1764015;81;21604;-75
2021/05/05 00:27:40;;;;;;;5.87;2.87;;;9.70;66.50;;;;;;1764386;81;21149;-75
2021/05/05 00:30:11;;;;;;;6.25;3.10;;;9.80;65.30;;;;;;1764005;81;21158;-76
2021/05/05 00:32:40;;;;;;;12.35;5.95;;;9.80;67.10;;;;;;1764212;81;21141;-76
2021/05/05 00:35:09;;;;;;;7.20;4.10;;;9.80;67.90;;;;;;1764062;81;21605;-76
2021/05/05 00:37:37;;;;;;;5.53;3.20;;;9.70;68.50;;;;;;1764200;81;21889;-75
2021/05/05 00:40:07;;;;;;;7.65;3.27;;;9.60;70.00;;;;;;1764388;81;21157;-76
2021/05/05 00:42:35;;;;;;;8.00;3.27;;;9.50;71.00;;;;;;1764373;81;21157;-75
2021/05/05 00:45:08;;;;;;;5.70;2.80;;;9.40;69.90;;;;;;1764062;81;21170;-75
2021/05/05 00:47:36;;;;;;;6.58;2.95;;;9.30;71.70;;;;;;1763984;81;21162;-75
2021/05/05 00:50:09;;;;;;;6.40;3.00;;;9.30;70.80;;;;;;1764157;80;21153;-75
2021/05/05 00:52:37;;;;;;;8.15;3.47;;;9.40;69.60;;;;;;1764161;81;21150;-75
2021/05/05 00:55:08;;;;;;;4.78;2.80;;;9.40;69.70;;;;;;1763978;81;21182;-75
2021/05/05 00:57:39;;;;;;;4.90;2.83;;;9.50;69.60;;;;;;1764196;81;21157;-75
2021/05/05 01:00:10;;;;;;;4.22;3.00;;;9.50;69.10;;;;;;1764285;81;21169;-75
2021/05/05 01:02:38;;;;;;;7.28;3.22;;;9.50;69.50;;;;;;1764304;81;21162;-75
2021/05/05 01:05:09;;;;;;;5.12;3.10;;;9.50;69.30;;;;;;1764160;81;21254;-75
2021/05/05 01:07:37;;;;;;;4.60;2.90;;;9.40;69.70;;;;;;1764083;81;21158;-75
2021/05/05 01:10:11;;;;;;;4.95;3.10;;;9.40;69.30;;;;;;1763979;81;21150;-75
2021/05/05 01:12:40;;;;;;;5.97;3.20;;;9.40;69.90;;;;;;1763980;81;21115;-75
2021/05/05 01:15:13;;;;;;;5.53;3.10;;;9.40;70.40;;;;;;1764034;81;21170;-75
2021/05/05 01:17:41;;;;;;;6.47;3.42;;;9.40;69.10;;;;;;1764472;81;21149;-75
2021/05/05 01:20:10;;;;;;;8.00;3.40;;;9.40;69.00;;;;;;1764428;81;21126;-75
2021/05/05 01:22:39;;;;;;;4.90;3.00;;;9.40;69.20;;;;;;1763976;81;21150;-75
2021/05/05 01:25:12;;;;;;;5.45;3.12;;;9.40;69.60;;;;;;1764096;81;21189;-75
2021/05/05 01:27:43;;;;;;;5.95;3.20;;;9.40;69.20;;;;;;1763255;81;21114;-75
2021/05/05 01:30:15;;;;;;;7.47;3.37;;;9.30;69.40;;;;;;1764193;81;21162;-76
2021/05/05 01:32:44;;;;;;;5.28;2.95;;;9.40;69.60;;;;;;1763979;81;21158;-77
2021/05/05 01:35:14;;;;;;;5.28;3.17;;;9.40;69.20;;;;;;1764140;81;21185;-76
2021/05/05 01:37:43;;;;;;;6.22;2.92;;;9.30;70.90;;;;;;1764267;81;21146;-76
2021/05/05 01:40:18;;;;;;;4.90;3.00;;;9.20;74.30;;;;;;1764183;81;21572;-76
2021/05/05 01:42:46;;;;;;;6.92;3.02;;;9.10;74.20;;;;;;1763830;81;21146;-75
2021/05/05 01:45:14;;;;;;;4.80;2.85;;;9.00;76.10;;;;;;1764117;81;21166;-75
2021/05/05 01:47:43;;;;;;;4.70;2.80;;;8.90;75.50;;;;;;1764054;81;21599;-75
2021/05/05 01:50:12;;;;;;;6.15;2.77;;;9.00;74.30;;;;;;1764146;81;21158;-75
2021/05/05 01:52:40;;;;;;;4.53;2.80;;;9.00;75.60;;;;;;1764105;81;21162;-75
2021/05/05 01:55:09;;;;;;;5.40;2.90;;;9.00;76.70;;;;;;1763894;81;21174;-75
2021/05/05 01:57:43;;;;;;;3.70;2.58;;;8.90;76.50;;;;;;1763944;81;21119;-75
2021/05/05 02:00:20;;;;;;;8.85;3.17;;;8.90;77.90;;;;;;1762075;81;21147;-75
2021/05/05 02:02:50;;;;;;;5.40;3.22;;;9.00;77.40;;;;;;1762880;81;21147;-75
2021/05/05 02:05:20;;;;;;;4.05;2.60;;;9.00;77.90;;;;;;1763130;81;21150;-75
2021/05/05 02:08:00;;;;;;;5.75;2.98;;;9.00;79.30;;;;;;1742344;81;21581;-75
2021/05/05 02:10:28;;;;;;;6.53;3.08;;;9.00;78.30;;;;;;1764310;80;21141;-76
2021/05/05 02:12:56;;;;;;;6.17;3.00;;;8.90;77.60;;;;;;1763937;81;21173;-76
2021/05/05 02:15:24;;;;;;;4.72;3.00;;;8.90;78.10;;;;;;1764074;81;21198;-76
2021/05/05 02:17:54;;;;;;;6.75;3.15;;;8.90;78.10;;;;;;1763041;81;21158;-75
2021/05/05 02:20:27;;;;;;;5.67;3.33;;;8.90;76.30;;;;;;1736423;81;21162;-75
2021/05/05 02:22:56;;;;;;;7.42;3.83;;;8.90;77.60;;;;;;1763913;81;21573;-75
2021/05/05 02:25:23;;;;;;;7.80;3.98;;;8.90;77.80;;;;;;1752098;81;21320;-75
2021/05/05 02:27:51;;;;;;;6.33;3.00;;;9.00;77.20;;;;;;1750282;82;21154;-76
2021/05/05 02:30:22;;;;;;;6.62;3.00;;;8.90;76.90;;;;;;1748935;82;21147;-76
2021/05/05 02:32:54;;;;;;;5.40;2.98;;;8.80;76.70;;;;;;1750260;82;21139;-75
2021/05/05 02:35:22;;;;;;;5.08;3.15;;;8.80;77.40;;;;;;1750260;82;21309;-76
2021/05/05 02:37:51;;;;;;;6.50;3.37;;;8.70;78.10;;;;;;1750361;82;21624;-75
2021/05/05 02:40:20;;;;;;;5.55;2.87;;;8.80;79.00;;;;;;1750867;82;21177;-75
2021/05/05 02:42:48;;;;;;;6.12;3.47;;;8.80;79.10;;;;;;1750759;82;21162;-75
2021/05/05 02:45:17;;;;;;;8.18;3.33;;;8.90;78.90;;;;;;1750351;82;22237;-75
2021/05/05 02:47:46;;;;;;;6.53;3.00;;;8.90;80.00;;;;;;1750431;82;21150;-75
2021/05/05 02:50:13;;;;;;;5.55;3.22;;;8.80;78.50;;;;;;1750542;82;21621;-75
2021/05/05 02:52:42;;;;;;;7.58;3.30;;;8.90;78.30;;;;;;1750254;82;21285;-75
2021/05/05 02:55:11;;;;;;;6.35;3.27;;;9.00;78.50;;;;;;1750227;82;21277;-75
2021/05/05 02:57:40;;;;;;;4.90;2.85;;;8.90;78.40;;;;;;1729383;82;21167;-75
2021/05/05 03:00:11;;;;;;;7.80;3.30;;;8.90;79.50;;;;;;1750530;82;21158;-75
2021/05/05 03:02:39;;;;;;;6.37;3.30;;;8.90;80.60;;;;;;1750486;82;21297;-75
2021/05/05 03:05:09;;;;;;;6.42;3.45;;;9.00;80.20;;;;;;1750449;82;21711;-75
2021/05/05 03:07:36;;;;;;;5.40;3.08;;;9.00;79.80;;;;;;1750263;82;21308;-76
2021/05/05 03:10:07;;;;;;;7.45;3.45;;;9.00;79.60;;;;;;1750558;82;21159;-76
2021/05/05 03:12:35;;;;;;;4.45;3.00;;;8.90;80.40;;;;;;1750296;82;21120;-75
2021/05/05 03:15:07;;;;;;;9.80;3.37;;;8.90;80.30;;;;;;1750352;82;21194;-75
2021/05/05 03:17:36;;;;;;;9.75;4.37;;;9.00;80.40;;;;;;1730023;82;21597;-76
2021/05/05 03:20:08;;;;;;;6.20;3.52;;;8.90;78.90;;;;;;1750490;82;21165;-76
2021/05/05 03:22:37;;;;;;;8.00;3.60;;;8.90;79.30;;;;;;1750410;82;21285;-75
2021/05/05 03:25:08;;;;;;;5.55;3.35;;;9.00;78.60;;;;;;1750528;81;21589;-75
2021/05/05 03:27:36;;;;;;;6.15;3.52;;;9.00;78.90;;;;;;1750598;82;21690;-75
2021/05/05 03:30:08;;;;;;;6.05;3.60;;;9.10;78.70;;;;;;1750602;82;21609;-76
2021/05/05 03:32:36;;;;;;;9.00;3.65;;;9.10;78.80;;;;;;1750612;82;21534;-76
2021/05/05 03:35:06;;;;;;;7.25;3.83;;;9.10;79.40;;;;;;1750570;82;21170;-76
2021/05/05 03:37:34;;;;;;;13.18;4.03;;;9.00;81.00;;;;;;1750808;82;21186;-75
2021/05/05 03:40:09;;;;;;;6.50;3.98;;;9.00;80.80;;;;;;1750879;82;21149;-75
2021/05/05 03:42:37;;;;;;;5.97;3.67;;;9.00;80.70;;;;;;1750430;82;21269;-75
2021/05/05 03:45:08;;;;;;;9.45;3.37;;;9.00;81.90;;;;;;1750575;82;21594;-75
2021/05/05 03:47:37;;;;;;;7.70;3.33;;;9.00;84.20;;;;;;1750407;82;21316;-75
2021/05/05 03:50:08;;;;;;;7.22;3.72;;;9.10;82.60;;;;;;1750651;82;21154;-75
2021/05/05 03:52:36;;;;;;;6.53;3.52;;;9.20;82.90;;;;;;1750427;82;21295;-75
2021/05/05 03:55:07;;;;;;;5.95;3.62;;;9.20;81.50;;;;;;1750449;82;21190;-75
2021/05/05 03:57:35;;;;;;;6.33;3.77;;;9.20;81.20;;;;;;1750413;82;21139;-74
2021/05/05 04:00:06;;;;;;;6.15;3.27;;;9.20;81.20;;;;;;1750731;82;21170;-74
2021/05/05 04:02:36;;;;;;;7.95;4.10;;;9.30;82.30;;;;;;1749931;82;21297;-74
2021/05/05 04:05:05;;;;;;;11.10;5.50;;;9.50;80.00;;;;;;1750452;82;21295;-74
2021/05/05 04:07:33;;;;;;;13.50;4.80;;;9.50;79.70;;;;;;1750376;82;21166;-76
2021/05/05 04:10:01;;;;;;;8.20;3.75;;;9.60;78.90;;;;;;1750375;82;21316;-75
2021/05/05 04:12:29;;;;;;;7.10;3.50;;;9.60;78.80;;;;;;1750535;82;21597;-75
2021/05/05 04:15:17;;;;;;;11.78;4.00;;;9.70;78.60;;;;;;1750534;82;21596;-75
2021/05/05 04:18:04;;;;;;;8.63;3.52;;;9.70;78.10;;;;;;1750574;82;21553;-76
2021/05/05 04:20:50;;;;;;;16.12;3.95;;;9.70;79.40;;;;;;1750754;82;21112;-76
2021/05/05 04:23:37;;;;;;;7.25;3.85;;;9.80;80.00;;;;;;1729421;82;21605;-76
2021/05/05 04:26:18;;;;;;;9.38;3.80;;;9.80;79.90;;;;;;1764118;81;21153;-76
2021/05/05 04:28:47;;;;;;;11.73;4.70;;;9.90;80.20;;;;;;1763970;81;21139;-76
2021/05/05 04:31:16;;;;;;;9.88;4.72;;;10.00;79.20;;;;;;1764097;81;21588;-76
2021/05/05 04:33:48;;;;;;;13.18;5.20;;;10.00;80.20;;;;;;1763968;81;21176;-76
2021/05/05 04:36:16;;;;;;;9.75;4.53;;;10.00;79.60;;;;;;1764380;81;21146;-75
2021/05/05 04:38:44;;;;;;;10.63;4.87;;;10.10;78.80;;;;;;1763995;81;21621;-76
2021/05/05 04:41:12;;;;;;;12.50;6.42;;;10.20;77.30;;;;;;1763982;81;21157;-76
2021/05/05 04:43:40;;;;;;;11.20;5.87;;;10.40;77.00;;;;;;1764379;81;21146;-77
2021/05/05 04:46:07;;;;;;;22.13;7.05;;;10.40;78.30;;;;;;1764145;81;21123;-76
2021/05/05 04:48:35;;;;;;;17.15;7.45;;;10.40;78.30;;;;;;1763980;81;21146;-76
2021/05/05 04:51:05;;;;;;;28.32;8.10;;;10.50;76.80;;;;;;1763790;81;21588;-76
2021/05/05 04:53:33;;;;;;;19.23;7.70;;;10.50;77.40;;;;;;1764204;81;21158;-76
2021/05/05 04:56:00;;;;;;;17.23;7.45;;;10.60;76.40;;;;;;1764264;81;21146;-76
2021/05/05 04:58:28;;;;;;;13.05;6.30;;;10.70;77.20;;;;;;1764153;81;21576;-76
2021/05/05 05:00:56;;;;;;;16.05;6.10;;;10.70;76.70;;;;;;1764158;81;21162;-76
2021/05/05 05:03:24;;;;;;;15.93;6.08;;;10.80;75.90;;;;;;1764059;81;21166;-76
2021/05/05 05:05:51;;;;;;;20.05;6.90;;;10.90;75.80;;;;;;1764184;81;21593;-76
2021/05/05 05:08:19;;;;;;;18.12;7.03;;;10.90;75.40;;;;;;1763938;81;21614;-75
2021/05/05 05:10:47;;;;;;;16.57;6.87;;;11.00;74.10;;;;;;1763962;81;21146;-76
2021/05/05 05:13:16;;;;;;;16.37;7.17;;;11.00;74.60;;;;;;1764158;81;21561;-75
2021/05/05 05:15:43;;;;;;;19.67;7.20;;;11.10;74.90;;;;;;1763959;81;21205;-76
2021/05/05 05:18:11;;;;;;;18.65;7.25;;;11.10;75.70;;;;;;1764149;81;21166;-76
2021/05/05 05:20:39;;;;;;;16.20;7.08;;;11.10;74.10;;;;;;1764303;81;21146;-76
2021/05/05 05:23:07;;;;;;;11.25;6.75;;;11.20;73.60;;;;;;1763958;81;21150;-76
2021/05/05 05:25:34;;;;;;;17.07;7.10;;;11.30;71.40;;;;;;1763879;81;21167;-76
2021/05/05 05:28:03;;;;;;;17.25;7.83;;;11.30;72.30;;;;;;1763964;81;21146;-76
2021/05/05 05:30:30;;;;;;;17.50;7.58;;;11.40;72.50;;;;;;1764026;81;21589;-76
2021/05/05 05:32:58;;;;;;;19.55;6.85;;;11.40;71.60;;;;;;1764020;81;21596;-76
2021/05/05 05:35:26;;;;;;;13.43;7.33;;;11.40;72.10;;;;;;1764004;81;21616;-76
2021/05/05 05:37:54;;;;;;;15.53;6.58;;;11.50;71.10;;;;;;1763949;81;21162;-76
2021/05/05 05:40:22;;;;;;;12.15;6.87;;;11.60;71.00;;;;;;1764130;81;21611;-76
2021/05/05 05:42:50;;;;;;;14.70;7.17;;;11.60;70.60;;;;;;1764051;81;21596;-76
2021/05/05 05:45:18;;;;;;;14.73;7.12;;;11.60;70.40;;;;;;1763913;81;21165;-76
2021/05/05 05:47:47;;;;;;;11.12;6.45;;;11.70;70.40;;;;;;1763942;80;21142;-76
2021/05/05 05:50:15;;;;;;;12.05;6.95;;;11.70;70.20;;;;;;1764000;81;21577;-76
2021/05/05 05:52:43;;;;;;;17.55;7.67;;;11.80;70.20;;;;;;1763956;81;21142;-76
2021/05/05 05:55:15;;;;;;;12.60;7.25;;;11.80;70.00;;;;;;1764093;81;21198;-76
2021/05/05 05:57:45;;;;;;;12.60;7.17;;;11.90;71.10;;;;;;1763966;81;21115;-76
2021/05/05 06:00:17;;;;;;;18.17;7.22;;;11.90;70.90;;;;;;1764123;81;21581;-76
2021/05/05 06:02:45;;;;;;;16.07;7.35;;;11.90;70.30;;;;;;1764144;81;21549;-76
2021/05/05 06:05:14;;;;;;;18.48;7.72;;;11.90;71.00;;;;;;1763939;81;21138;-77
2021/05/05 06:07:41;;;;;;;16.97;7.62;;;12.00;72.40;;;;;;1764184;81;21223;-76
2021/05/05 06:10:11;;;;;;;16.35;8.10;;;12.10;70.30;;;;;;1764210;81;21150;-77
2021/05/05 06:12:40;;;;;;;18.07;8.90;;;12.20;70.00;;;;;;1764197;81;21107;-76
2021/05/05 06:15:10;;;;;;;17.02;8.08;;;12.30;68.20;;;;;;1763913;81;21602;-76
2021/05/05 06:17:38;;;;;;;17.23;8.83;;;12.40;68.10;;;;;;1764075;81;21557;-76
2021/05/05 06:20:08;;;;;;;16.00;8.65;;;12.60;67.50;;;;;;1764215;80;21150;-76
2021/05/05 06:22:37;;;;;;;19.42;9.28;;;12.70;68.00;;;;;;1764025;81;21153;-76
2021/05/05 06:25:07;;;;;;;17.10;8.70;;;12.80;65.70;;;;;;1760031;81;21194;-76
2021/05/05 06:27:37;;;;;;;13.55;8.18;;;13.00;65.60;;;;;;1750346;82;21162;-76
2021/05/05 06:30:08;;;;;;;19.35;8.20;;;13.10;64.90;;;;;;1750456;82;21674;-76
2021/05/05 06:32:36;;;;;;;15.35;7.90;;;13.10;64.50;;;;;;1750279;82;21576;-76
2021/05/05 06:35:07;;;;;;;13.18;8.33;;;13.20;65.00;;;;;;1750216;82;21300;-76
2021/05/05 06:37:35;;;;;;;12.85;7.80;;;13.30;63.10;;;;;;1750337;82;21289;-76
2021/05/05 06:40:07;;;;;;;10.80;6.62;;;13.30;62.60;;;;;;1750427;82;21324;-75
2021/05/05 06:42:35;;;;;;;10.75;6.72;;;13.40;61.60;;;;;;1750560;82;21151;-76
2021/05/05 06:45:06;;;;;;;11.45;6.75;;;13.40;60.70;;;;;;1750245;82;21308;-76
2021/05/05 06:47:35;;;;;;;12.70;6.78;;;13.50;61.30;;;;;;1750939;82;21154;-76
2021/05/05 06:50:08;;;;;;;11.78;7.03;;;13.50;61.10;;;;;;1750427;82;21154;-76
2021/05/05 06:52:36;;;;;;;13.10;7.25;;;13.50;61.30;;;;;;1750623;82;21138;-75
2021/05/05 06:55:06;;;;;;;12.15;7.40;;;13.60;60.10;;;;;;1750381;82;21170;-76
2021/05/05 06:57:34;;;;;;;11.65;6.20;;;13.70;60.50;;;;;;1750504;82;21171;-76
2021/05/05 07:00:07;;;;;;;14.05;7.25;;;13.80;59.70;;;;;;1750405;82;21179;-76
2021/05/05 07:02:35;;;;;;;15.03;7.75;;;13.80;59.80;;;;;;1750659;82;21150;-76
2021/05/05 07:05:03;;;;;;;16.48;6.97;;;13.80;59.80;;;;;;1750528;82;21119;-76
2021/05/05 07:07:31;;;;;;;15.35;8.10;;;13.80;61.10;;;;;;1750963;82;21151;-76
2021/05/05 07:09:59;;;;;;;16.55;7.30;;;13.90;60.30;;;;;;1750503;82;21131;-76
2021/05/05 07:12:26;;;;;;;17.07;7.72;;;13.90;60.40;;;;;;1750383;82;21193;-76
2021/05/05 07:14:54;;;;;;;17.65;7.90;;;14.00;61.30;;;;;;1750561;82;21569;-76
2021/05/05 07:17:22;;;;;;;18.75;8.25;;;14.10;62.10;;;;;;1750581;82;21179;-76
2021/05/05 07:19:50;;;;;;;21.48;8.38;;;14.10;62.00;;;;;;1750377;82;21747;-76
2021/05/05 07:22:18;;;;;;;17.50;8.78;;;14.20;62.10;;;;;;1750556;82;21151;-76
2021/05/05 07:24:47;;;;;;;21.42;9.70;;;14.30;62.80;;;;;;1750654;81;21321;-75
2021/05/05 07:27:16;;;;;;;23.75;8.45;;;14.30;63.00;;;;;;1764326;81;21157;-76
2021/05/05 07:29:45;;;;;;;21.42;9.68;;;14.40;63.20;;;;;;1764023;81;21154;-76
2021/05/05 07:32:13;;;;;;;21.48;9.38;;;14.50;63.20;;;;;;1764026;81;21146;-76
2021/05/05 07:34:42;;;;;;;25.08;9.45;;;14.50;63.10;;;;;;1764199;81;21584;-75
2021/05/05 07:37:13;;;;;;;19.17;8.85;;;14.50;63.30;;;;;;1764218;80;21149;-76
2021/05/05 07:40:24;;;;;;;29.37;9.53;;;14.60;63.40;;;;;;1764341;81;21110;-76
2021/05/05 07:43:27;;;;;;;26.10;9.88;;;14.80;63.00;;;;;;1760291;81;21167;-76
2021/05/05 07:47:52;;;;;;;20.15;10.63;;;15.30;62.90;;;;;;1764223;81;21564;-76
2021/05/05 07:50:19;;;;;;;25.12;10.50;;;15.50;62.00;;;;;;1764024;81;21145;-76
2021/05/05 07:52:46;;;;;;;18.32;9.65;;;15.70;62.10;;;;;;1764009;81;21173;-76
2021/05/05 07:55:13;;;;;;;23.02;10.38;;;15.80;61.90;;;;;;1763958;81;21122;-76
2021/05/05 07:57:42;;;;;;;20.17;10.30;;;16.00;61.70;;;;;;1764177;80;21482;-76
2021/05/05 08:00:12;;;;;;;20.70;10.48;;;16.00;61.20;;;;;;1764161;81;21588;-76
2021/05/05 08:02:40;;;;;;;20.48;11.80;;;16.10;61.60;;;;;;1764071;81;21608;-76
2021/05/05 08:05:11;;;;;;;30.20;11.97;;;16.10;61.80;;;;;;1764147;81;21134;-76
2021/05/05 08:07:38;;;;;;;27.90;11.55;;;16.00;62.00;;;;;;1763997;81;21166;-76
2021/05/05 08:10:10;;;;;;;28.23;12.07;;;16.00;62.60;;;;;;1764368;81;21137;-76
2021/05/05 08:12:38;;;;;;;21.02;11.28;;;16.00;62.80;;;;;;1764102;81;21137;-75
2021/05/05 08:15:07;;;;;;;23.18;10.65;;;15.80;63.30;;;;;;1763658;81;21170;-76
2021/05/05 08:17:35;;;;;;;23.50;10.32;;;15.80;63.30;;;;;;1763858;81;21182;-76
2021/05/05 08:20:05;;;;;;;16.77;9.53;;;15.70;63.70;;;;;;1764100;81;21118;-76
2021/05/05 08:22:34;;;;;;;21.12;10.95;;;15.70;64.70;;;;;;1763982;81;21150;-76
2021/05/05 08:25:04;;;;;;;17.20;9.60;;;15.60;64.80;;;;;;1764397;81;21150;-76
2021/05/05 08:27:32;;;;;;;21.75;9.38;;;15.50;65.20;;;;;;1764181;81;21150;-76
2021/05/05 08:30:01;;;;;;;20.32;9.63;;;15.50;65.10;;;;;;1763995;81;21154;-76
2021/05/05 08:32:28;;;;;;;14.68;8.40;;;15.50;65.60;;;;;;1763806;81;21150;-76
2021/05/05 08:34:56;;;;;;;24.95;8.40;;;15.60;65.50;;;;;;1763946;81;21162;-76
2021/05/05 08:37:24;;;;;;;15.23;7.70;;;15.60;66.10;;;;;;1763985;81;21599;-76
2021/05/05 08:39:51;;;;;;;17.48;7.85;;;15.70;65.10;;;;;;1764259;81;21123;-77
2021/05/05 08:42:19;;;;;;;16.07;7.37;;;15.80;64.20;;;;;;1764063;81;21166;-76
2021/05/05 08:44:49;;;;;;;15.70;7.72;;;15.80;65.30;;;;;;1763970;81;21126;-76
2021/05/05 08:47:17;;;;;;;14.73;6.42;;;15.90;65.40;;;;;;1764040;81;21589;-76
2021/05/05 08:49:47;;;;;;;14.20;7.20;;;15.90;65.20;;;;;;1764206;81;21171;-76
2021/05/05 08:52:15;;;;;;;13.40;7.00;;;16.00;63.80;;;;;;1764144;81;21145;-77
2021/05/05 08:54:46;;;;;;;11.35;6.70;;;16.00;64.70;;;;;;1764083;81;21166;-76
2021/05/05 08:57:15;;;;;;;13.90;7.53;;;16.00;63.40;;;;;;1763986;81;21153;-76
2021/05/05 08:59:44;;;;;;;14.85;7.60;;;16.00;64.30;;;;;;1764053;81;21157;-76
2021/05/05 09:02:11;;;;;;;13.83;5.87;;;16.00;66.30;;;;;;1764042;81;21174;-76
2021/05/05 09:04:42;;;;;;;7.20;4.37;;;16.10;63.50;;;;;;1764240;81;21170;-76
2021/05/05 09:07:11;;;;;;;5.97;2.50;;;16.20;61.80;;;;;;1762252;81;21173;-76
2021/05/05 09:09:45;;;;;;;6.12;2.60;;;16.20;55.30;;;;;;1764145;81;21170;-76
2021/05/05 09:12:24;;;;;;;5.72;2.42;;;16.40;55.80;;;;;;1763956;81;21146;-76
2021/05/05 09:15:03;;;;;;;4.83;2.30;;;16.50;53.70;;;;;;1764002;81;21150;-76
2021/05/05 09:17:37;;;;;;;3.95;1.90;;;16.60;54.00;;;;;;1763648;81;21142;-76
2021/05/05 09:20:11;;;;;;;4.00;2.45;;;16.80;53.70;;;;;;1763787;81;21177;-76
2021/05/05 09:22:58;;;;;;;3.25;2.12;;;16.90;52.40;;;;;;1764156;81;21134;-76
2021/05/05 09:25:30;;;;;;;3.37;2.00;;;17.00;51.80;;;;;;1762800;81;21143;-76
2021/05/05 09:28:22;;;;;;;3.40;2.35;;;17.20;50.40;;;;;;1749063;82;21154;-76
2021/05/05 09:31:10;;;;;;;3.85;2.08;;;17.20;50.80;;;;;;1750404;82;21700;-76
2021/05/05 09:33:45;;;;;;;3.50;1.90;;;17.40;49.60;;;;;;1750182;82;21162;-76
2021/05/05 09:36:09;;;;;;;5.05;2.10;;;17.50;48.10;;;;;;1749609;82;21143;-75
2021/05/05 09:38:41;;;;;;;3.62;2.05;;;17.60;48.10;;;;;;1750854;82;21585;-76
2021/05/05 09:41:27;;;;;;;3.55;2.17;;;17.80;48.00;;;;;;1750300;82;21285;-76
2021/05/05 09:44:02;;;;;;;4.17;2.20;;;17.90;46.80;;;;;;1749637;82;21186;-76
2021/05/05 09:46:42;;;;;;;3.50;1.92;;;18.00;47.60;;;;;;1750374;82;21135;-76
2021/05/05 09:49:27;;;;;;;6.30;2.15;;;18.20;47.50;;;;;;1750121;82;21288;-76
2021/05/05 09:52:11;;;;;;;3.22;1.90;;;18.30;46.90;;;;;;1750292;82;21280;-77
2021/05/05 09:54:53;;;;;;;5.42;2.10;;;18.40;46.00;;;;;;1750456;82;21119;-76
2021/05/05 09:57:31;;;;;;;4.42;2.17;;;18.50;46.00;;;;;;1750301;82;21305;-76
2021/05/05 10:00:07;;;;;;;7.00;1.85;;;18.60;45.70;;;;;;1750479;82;21166;-76
2021/05/05 10:02:50;;;;;;;4.45;2.08;;;18.70;46.90;;;;;;1749969;82;21617;-76
2021/05/05 10:05:27;;;;;;;3.50;2.10;;;18.70;45.00;;;;;;1750636;82;21132;-76
2021/05/05 10:08:04;;;;;;;2.75;1.80;;;18.80;45.60;;;;;;1750434;82;21138;-76
2021/05/05 10:10:35;;;;;;;3.95;1.95;;;18.80;45.70;;;;;;1750388;82;21308;-76
2021/05/05 10:13:06;;;;;;;4.08;2.20;;;18.80;46.50;;;;;;1750362;82;21700;-76
2021/05/05 10:15:37;;;;;;;4.45;2.05;;;18.90;44.90;;;;;;1750472;82;21660;-76
2021/05/05 10:18:13;;;;;;;10.70;2.30;;;19.00;46.30;;;;;;1750281;82;21196;-75
2021/05/05 10:20:44;;;;;;;5.30;2.20;;;19.10;45.30;;;;;;1750284;82;21565;-76
2021/05/05 10:23:17;;;;;;;3.55;2.00;;;19.20;46.20;;;;;;1750229;82;21182;-76
2021/05/05 10:25:50;;;;;;;4.40;2.08;;;19.20;46.00;;;;;;1750271;82;21712;-75
2021/05/05 10:28:18;;;;;;;5.70;2.10;;;19.30;46.60;;;;;;1750588;82;21155;-76
2021/05/05 10:30:47;;;;;;;4.12;2.20;;;19.40;45.90;;;;;;1750418;82;21273;-77
2021/05/05 10:33:20;;;;;;;3.30;2.00;;;19.50;45.20;;;;;;1750215;82;21300;-77
2021/05/05 10:35:48;;;;;;;4.12;2.10;;;19.50;43.60;;;;;;1750269;82;21594;-77
2021/05/05 10:38:37;;;;;;;3.55;2.05;;;19.60;44.70;;;;;;1750258;82;21158;-76
2021/05/05 10:41:09;;;;;;;3.80;2.10;;;19.60;45.50;;;;;;1747051;82;21297;-76
2021/05/05 10:43:56;;;;;;;4.10;2.27;;;19.60;44.00;;;;;;1750547;82;21154;-77
2021/05/05 10:46:31;;;;;;;4.47;1.90;;;19.60;44.10;;;;;;1750471;82;21581;-76
2021/05/05 10:49:17;;;;;;;5.00;2.60;;;19.60;44.20;;;;;;1750304;82;21288;-76
2021/05/05 10:51:56;;;;;;;5.97;2.60;;;19.50;44.50;;;;;;1750591;82;21146;-76
2021/05/05 10:54:46;;;;;;;4.00;1.87;;;19.60;44.80;;;;;;1750274;82;21163;-77
2021/05/05 10:57:14;;;;;;;3.85;2.00;;;19.60;44.40;;;;;;1750577;82;21357;-77
2021/05/05 11:00:06;;;;;;;5.05;1.98;;;19.70;44.70;;;;;;1750372;82;21178;-76
2021/05/05 11:02:48;;;;;;;5.47;2.12;;;19.80;45.40;;;;;;1750648;82;21158;-77
2021/05/05 11:05:23;;;;;;;3.25;2.00;;;19.90;44.50;;;;;;1750958;82;21292;-77
2021/05/05 11:08:05;;;;;;;5.28;2.37;;;19.90;43.70;;;;;;1749049;82;21268;-77
2021/05/05 11:10:38;;;;;;;6.53;2.47;;;19.90;43.50;;;;;;1750393;82;21284;-77
2021/05/05 11:13:24;;;;;;;4.42;2.40;;;19.90;44.20;;;;;;1750561;82;21154;-77
2021/05/05 11:15:56;;;;;;;7.33;2.30;;;19.90;46.20;;;;;;1750571;82;21752;-77
2021/05/05 11:18:38;;;;;;;5.20;2.30;;;19.90;45.40;;;;;;1750461;82;21190;-77
2021/05/05 11:21:11;;;;;;;4.95;2.60;;;19.90;46.70;;;;;;1750376;82;21700;-74
2021/05/05 11:23:44;;;;;;;6.22;2.50;;;19.90;46.40;;;;;;1747183;82;21261;-76
2021/05/05 11:26:23;;;;;;;5.00;2.27;;;19.90;47.60;;;;;;1750417;82;21146;-78
2021/05/05 11:29:01;;;;;;;4.97;2.58;;;19.90;46.60;;;;;;1750550;82;21138;-76
2021/05/05 11:31:50;;;;;;;4.45;2.05;;;19.80;46.40;;;;;;1750313;82;21159;-77
2021/05/05 11:34:27;;;;;;;5.47;2.15;;;19.80;47.40;;;;;;1750344;82;21711;-76
2021/05/05 11:37:22;;;;;;;5.75;2.37;;;19.90;45.40;;;;;;1715320;83;21598;-77
2021/05/05 11:40:01;;;;;;;5.00;2.27;;;19.90;42.70;;;;;;1755674;81;21224;-76
2021/05/05 11:42:36;;;;;;;5.25;2.45;;;19.90;41.30;;;;;;1750489;81;21534;-77
2021/05/05 11:45:12;;;;;;;5.42;2.47;;;20.00;42.10;;;;;;1750274;82;21281;-76
2021/05/05 11:47:45;;;;;;;4.72;2.45;;;19.90;40.90;;;;;;1750698;82;21506;-77
2021/05/05 11:50:20;;;;;;;3.45;2.20;;;20.00;42.00;;;;;;1750606;82;21170;-76
2021/05/05 11:52:51;;;;;;;4.83;2.00;;;20.00;42.40;;;;;;1750660;82;21142;-76
2021/05/05 11:55:23;;;;;;;4.35;2.40;;;20.10;42.40;;;;;;1750355;82;21299;-76
2021/05/05 11:57:56;;;;;;;4.58;2.58;;;20.10;42.40;;;;;;1750464;82;21742;-76
2021/05/05 12:00:36;;;;;;;3.58;2.20;;;20.20;42.20;;;;;;1750586;82;21190;-77
2021/05/05 12:03:09;;;;;;;6.53;2.33;;;20.20;41.60;;;;;;1750477;82;21119;-76
2021/05/05 12:05:41;;;;;;;2.95;2.08;;;20.20;41.60;;;;;;1750547;82;21533;-75
2021/05/05 12:08:19;;;;;;;5.95;2.60;;;20.20;41.30;;;;;;1750457;82;21179;-75
2021/05/05 12:10:58;;;;;;;5.08;2.08;;;20.30;42.20;;;;;;1750652;82;21147;-76
2021/05/05 12:13:40;;;;;;;4.05;1.82;;;20.30;41.30;;;;;;1749861;82;21682;-76
2021/05/05 12:16:28;;;;;;;3.25;2.00;;;20.40;41.20;;;;;;1750362;82;21569;-76
2021/05/05 12:18:55;;;;;;;;;;;20.40;40.30;;;;;;1753052;82;21142;-75
2021/05/05 12:21:26;;;;;;;4.20;1.70;;;20.40;39.50;;;;;;1750321;82;20245;-76
2021/05/05 12:24:01;;;;;;;5.00;1.98;;;20.30;38.50;;;;;;1750336;82;21170;-76
2021/05/05 12:26:34;;;;;;;3.27;1.67;;;20.30;38.20;;;;;;1751878;81;21115;-76
2021/05/05 12:29:06;;;;;;;2.58;1.80;;;20.40;38.40;;;;;;1764196;81;21138;-76
2021/05/05 12:31:38;;;;;;;4.30;1.85;;;20.50;38.50;;;;;;1764170;81;21608;-76
2021/05/05 12:34:08;;;;;;;5.53;1.72;;;20.50;38.10;;;;;;1764167;81;21145;-76
2021/05/05 12:36:41;;;;;;;3.00;1.70;;;20.60;37.60;;;;;;1763970;81;21178;-75
2021/05/05 12:39:19;;;;;;;6.30;2.00;;;20.60;38.60;;;;;;1764080;81;21166;-75
2021/05/05 12:41:51;;;;;;;4.55;1.87;;;20.60;37.70;;;;;;1764183;81;21158;-76
2021/05/05 12:44:22;;;;;;;3.22;2.00;;;20.60;39.40;;;;;;1764260;81;21143;-76
2021/05/05 12:49:34;;;;;;;3.20;1.90;;;20.50;38.50;;;;;;1764254;81;21153;-76
2021/05/05 12:52:05;;;;;;;4.45;1.87;;;20.50;38.90;;;;;;1764105;81;21115;-76
2021/05/05 12:54:43;;;;;;;4.08;1.87;;;20.50;39.30;;;;;;1763947;81;21191;-75
2021/05/05 12:57:06;;;;;;;3.10;1.90;;;20.60;38.60;;;;;;1762731;81;21142;-76
2021/05/05 12:59:35;;;;;;;3.65;2.00;;;20.60;39.40;;;;;;1762890;81;21636;-75
2021/05/05 13:02:10;;;;;;;4.37;1.90;;;20.70;39.30;;;;;;1764150;80;21166;-76
2021/05/05 13:04:44;;;;;;;2.98;1.75;;;20.70;38.10;;;;;;1762011;81;21185;-76
2021/05/05 13:07:37;;;;;;;5.22;1.77;;;20.70;37.20;;;;;;1764142;81;21106;-76
2021/05/05 13:10:23;;;;;;;3.17;1.75;;;20.60;37.90;;;;;;1763806;81;21153;-76
2021/05/05 13:13:06;;;;;;;3.05;1.77;;;20.50;38.50;;;;;;1764211;81;21141;-77